createdAt,value
2017-12-29T00:00:37.346Z,97049.99
2017-12-29T00:01:40.252Z,97059.19
2017-12-29T00:02:43.188Z,97056.11
2017-12-29T00:03:46.143Z,97055.11
2017-12-29T00:04:49.039Z,97046.53
2017-12-29T00:05:52.387Z,97060.53
2017-12-29T00:06:55.359Z,97060.76
2017-12-29T00:07:58.330Z,97061.91
2017-12-29T00:09:01.259Z,97062.23
2017-12-29T00:10:04.224Z,97065.73
2017-12-29T00:11:07.763Z,97063.23
2017-12-29T00:12:11.010Z,97059.22
2017-12-29T00:13:13.935Z,97069.35
2017-12-29T00:14:16.870Z,97060.69
2017-12-29T00:15:19.770Z,97059.22
2017-12-29T00:16:22.713Z,97061.65
2017-12-29T00:17:25.655Z,97063.03
2017-12-29T00:18:29.476Z,97051.34
2017-12-29T00:19:32.458Z,97060.14
2017-12-29T00:20:35.470Z,97065.11
2017-12-29T00:21:38.451Z,97058.61
2017-12-29T00:22:41.405Z,97072.08
2017-12-29T00:23:44.335Z,97071.30
2017-12-29T00:24:48.089Z,97070.77
2017-12-29T00:25:50.983Z,97066.14
2017-12-29T00:26:53.868Z,97070.54
2017-12-29T00:27:56.803Z,97066.88
2017-12-29T00:28:59.714Z,97064.19
2017-12-29T00:30:02.675Z,97066.30
2017-12-29T00:31:05.924Z,97065.30
2017-12-29T00:32:08.787Z,97063.39
2017-12-29T00:33:11.692Z,97065.34
2017-12-29T00:34:14.530Z,97065.30
2017-12-29T00:35:17.424Z,97066.11
2017-12-29T00:36:20.246Z,97065.02
2017-12-29T00:37:23.479Z,97062.71
2017-12-29T00:38:26.699Z,97061.34
2017-12-29T00:39:29.572Z,97059.22
2017-12-29T00:40:32.439Z,97065.59
2017-12-29T00:41:35.322Z,97068.83
2017-12-29T00:42:38.225Z,97065.97
2017-12-29T00:43:41.358Z,97070.97
2017-12-29T00:44:44.356Z,97068.88
2017-12-29T00:45:47.324Z,97074.82
2017-12-29T00:46:50.279Z,97082.48
2017-12-29T00:47:53.240Z,97079.84
2017-12-29T00:48:56.811Z,97088.08
2017-12-29T00:49:59.918Z,97091.94
2017-12-29T00:51:04.125Z,97090.98
2017-12-29T00:52:07.097Z,97089.23
2017-12-29T00:53:10.037Z,97085.22
2017-12-29T00:54:13.196Z,97084.46
2017-12-29T00:55:16.672Z,97088.66
2017-12-29T00:56:19.701Z,97084.45
2017-12-29T00:57:22.753Z,97088.47
2017-12-29T00:58:25.748Z,97086.75
2017-12-29T00:59:28.749Z,97090.39
2017-12-29T01:00:31.750Z,97086.74
2017-12-29T01:01:35.004Z,97090.59
2017-12-29T01:02:37.975Z,97096.55
2017-12-29T01:03:40.995Z,97103.48
2017-12-29T01:04:43.929Z,97096.73
2017-12-29T01:05:46.971Z,97102.50
2017-12-29T01:06:49.928Z,97097.13
2017-12-29T01:07:53.168Z,97099.63
2017-12-29T01:08:56.091Z,97099.61
2017-12-29T01:09:59.016Z,97106.53
2017-12-29T01:11:01.972Z,97107.13
2017-12-29T01:12:04.882Z,97106.55
2017-12-29T01:13:07.907Z,97111.73
2017-12-29T01:14:10.958Z,97115.19
2017-12-29T01:15:13.943Z,97109.80
2017-12-29T01:16:16.951Z,97120.02
2017-12-29T01:17:19.896Z,97114.03
2017-12-29T01:18:22.801Z,97120.77
2017-12-29T01:19:25.947Z,97115.00
2017-12-29T01:20:28.846Z,97124.80
2017-12-29T01:21:31.834Z,97123.06
2017-12-29T01:22:34.830Z,97122.31
2017-12-29T01:23:37.800Z,97125.20
2017-12-29T01:24:40.840Z,97130.40
2017-12-29T01:25:44.066Z,97127.89
2017-12-29T01:26:46.975Z,97129.61
2017-12-29T01:27:49.907Z,97134.81
2017-12-29T01:28:52.848Z,97129.20
2017-12-29T01:29:55.706Z,97131.17
2017-12-29T01:30:58.563Z,97129.05
2017-12-29T01:32:01.801Z,97135.38
2017-12-29T01:33:04.718Z,97147.31
2017-12-29T01:34:07.549Z,97140.77
2017-12-29T01:35:10.370Z,97137.89
2017-12-29T01:36:13.190Z,97138.83
2017-12-29T01:37:16.008Z,97139.03
2017-12-29T01:38:19.102Z,97133.86
2017-12-29T01:39:21.911Z,97133.06
2017-12-29T01:40:24.872Z,97128.09
2017-12-29T01:41:27.837Z,97132.49
2017-12-29T01:42:30.799Z,97132.68
2017-12-29T01:43:33.772Z,97132.50
2017-12-29T01:44:37.033Z,97134.82
2017-12-29T01:45:39.967Z,97130.78
2017-12-29T01:46:43.439Z,97128.65
2017-12-29T01:47:46.604Z,97130.38
2017-12-29T01:48:49.481Z,97126.89
2017-12-29T01:49:52.368Z,97135.59
2017-12-29T01:50:55.523Z,97146.14
2017-12-29T01:51:58.417Z,97143.08
2017-12-29T01:53:01.333Z,97145.19
2017-12-29T01:54:04.286Z,97145.94
2017-12-29T01:55:07.240Z,97141.94
2017-12-29T01:56:10.166Z,97138.45
2017-12-29T01:57:13.378Z,97143.83
2017-12-29T01:58:16.392Z,97135.97
2017-12-29T01:59:19.356Z,97135.00
2017-12-29T02:00:22.188Z,97143.44
2017-12-29T02:01:24.995Z,97135.95
2017-12-29T02:02:27.981Z,97140.97
2017-12-29T02:03:31.200Z,97139.81
2017-12-29T02:04:34.128Z,97144.04
2017-12-29T02:05:37.648Z,97139.62
2017-12-29T02:06:40.576Z,97141.72
2017-12-29T02:07:43.507Z,97148.66
2017-12-29T02:08:46.470Z,97105.01
2017-12-29T02:09:49.707Z,97138.47
2017-12-29T02:10:52.610Z,97130.57
2017-12-29T02:11:55.990Z,97133.27
2017-12-29T02:12:58.920Z,97120.97
2017-12-29T02:14:01.843Z,97138.45
2017-12-29T02:15:04.758Z,97137.70
2017-12-29T02:16:07.845Z,97124.24
2017-12-29T02:17:10.795Z,97127.69
2017-12-29T02:18:13.898Z,97136.34
2017-12-29T02:19:16.774Z,97133.47
2017-12-29T02:20:19.632Z,97133.66
2017-12-29T02:21:22.830Z,97137.30
2017-12-29T02:22:25.781Z,97121.34
2017-12-29T02:23:28.825Z,97134.23
2017-12-29T02:24:31.768Z,97140.58
2017-12-29T02:25:34.712Z,97133.25
2017-12-29T02:26:37.641Z,97140.94
2017-12-29T02:27:40.946Z,97129.63
2017-12-29T02:28:45.559Z,97143.63
2017-12-29T02:29:48.499Z,97140.97
2017-12-29T02:30:51.425Z,97136.36
2017-12-29T02:31:54.352Z,97131.91
2017-12-29T02:32:57.299Z,97140.77
2017-12-29T02:34:00.548Z,97131.73
2017-12-29T02:35:03.400Z,97136.16
2017-12-29T02:36:06.265Z,97137.50
2017-12-29T02:37:09.173Z,97128.47
2017-12-29T02:38:12.065Z,97134.05
2017-12-29T02:39:14.980Z,97132.12
2017-12-29T02:40:18.264Z,97136.72
2017-12-29T02:41:21.131Z,97150.77
2017-12-29T02:42:24.040Z,97145.57
2017-12-29T02:43:26.940Z,97130.40
2017-12-29T02:44:29.888Z,97140.57
2017-12-29T02:45:32.774Z,97145.77
2017-12-29T02:46:36.056Z,97144.05
2017-12-29T02:47:39.322Z,97140.38
2017-12-29T02:48:42.249Z,97139.80
2017-12-29T02:49:45.186Z,97146.15
2017-12-29T02:50:48.142Z,97144.61
2017-12-29T02:51:51.079Z,97143.08
2017-12-29T02:52:54.296Z,97144.03
2017-12-29T02:53:57.277Z,97136.73
2017-12-29T02:55:00.291Z,97138.08
2017-12-29T02:56:03.719Z,97136.36
2017-12-29T02:57:06.652Z,97140.95
2017-12-29T02:58:09.565Z,97149.41
2017-12-29T02:59:12.912Z,97141.92
2017-12-29T03:00:15.854Z,97139.24
2017-12-29T03:01:18.851Z,97146.91
2017-12-29T03:02:21.782Z,97150.00
2017-12-29T03:03:24.780Z,97145.58
2017-12-29T03:04:27.713Z,97150.96
2017-12-29T03:05:30.895Z,97148.85
2017-12-29T03:06:33.817Z,97145.58
2017-12-29T03:07:36.743Z,97144.81
2017-12-29T03:08:39.675Z,97144.02
2017-12-29T03:09:42.574Z,97143.82
2017-12-29T03:10:45.532Z,97151.52
2017-12-29T03:11:48.967Z,97147.51
2017-12-29T03:12:51.901Z,97149.23
2017-12-29T03:13:54.800Z,97134.61
2017-12-29T03:14:57.660Z,97145.20
2017-12-29T03:16:00.681Z,97138.45
2017-12-29T03:17:03.784Z,97141.16
2017-12-29T03:18:07.013Z,97141.73
2017-12-29T03:19:10.011Z,97135.01
2017-12-29T03:20:12.976Z,97135.37
2017-12-29T03:21:16.007Z,97134.98
2017-12-29T03:22:18.960Z,97137.67
2017-12-29T03:23:21.928Z,97138.27
2017-12-29T03:24:25.250Z,97151.55
2017-12-29T03:25:28.148Z,97146.51
2017-12-29T03:26:31.121Z,97149.62
2017-12-29T03:27:34.052Z,97136.52
2017-12-29T03:28:36.981Z,97147.50
2017-12-29T03:29:39.945Z,97151.15
2017-12-29T03:30:43.076Z,97156.14
2017-12-29T03:31:46.023Z,97154.22
2017-12-29T03:32:48.892Z,97148.83
2017-12-29T03:33:51.707Z,97152.31
2017-12-29T03:34:54.589Z,97148.83
2017-12-29T03:35:57.681Z,97154.81
2017-12-29T03:37:00.507Z,97153.66
2017-12-29T03:38:03.340Z,97158.66
2017-12-29T03:39:06.270Z,97157.69
2017-12-29T03:40:09.238Z,97151.73
2017-12-29T03:41:12.216Z,97151.52
2017-12-29T03:42:15.458Z,97155.00
2017-12-29T03:43:18.389Z,97156.36
2017-12-29T03:44:21.343Z,97151.92
2017-12-29T03:45:24.284Z,97149.62
2017-12-29T03:46:27.244Z,97159.59
2017-12-29T03:47:30.183Z,97153.25
2017-12-29T03:48:33.402Z,97160.94
2017-12-29T03:49:36.322Z,97157.09
2017-12-29T03:50:39.236Z,97158.27
2017-12-29T03:51:42.062Z,97153.64
2017-12-29T03:52:44.877Z,97146.72
2017-12-29T03:53:47.680Z,97141.91
2017-12-29T03:54:50.489Z,97149.43
2017-12-29T03:55:53.325Z,97148.06
2017-12-29T03:56:56.524Z,97148.66
2017-12-29T03:57:59.465Z,97150.19
2017-12-29T03:59:03.544Z,97141.14
2017-12-29T04:00:06.746Z,97149.21
2017-12-29T04:01:09.592Z,97155.17
2017-12-29T04:02:12.418Z,97146.72
2017-12-29T04:03:15.298Z,97141.16
2017-12-29T04:04:18.136Z,97138.64
2017-12-29T04:05:20.960Z,97140.38
2017-12-29T04:06:24.289Z,97135.77
2017-12-29T04:07:27.251Z,97145.77
2017-12-29T04:08:31.239Z,97139.02
2017-12-29T04:09:34.197Z,97135.77
2017-12-29T04:10:37.164Z,97138.83
2017-12-29T04:11:40.091Z,97130.58
2017-12-29T04:12:43.321Z,97123.45
2017-12-29T04:13:46.218Z,97130.58
2017-12-29T04:14:49.156Z,97126.73
2017-12-29T04:15:52.079Z,97129.63
2017-12-29T04:16:54.997Z,97135.20
2017-12-29T04:18:00.168Z,97123.47
2017-12-29T04:19:03.376Z,97133.64
2017-12-29T04:20:06.789Z,97131.91
2017-12-29T04:21:09.703Z,97136.91
2017-12-29T04:22:12.613Z,97132.70
2017-12-29T04:23:15.552Z,97123.65
2017-12-29T04:24:18.449Z,97136.16
2017-12-29T04:25:21.656Z,97144.23
2017-12-29T04:26:24.588Z,97137.88
2017-12-29T04:27:27.499Z,97139.42
2017-12-29T04:28:32.022Z,97133.86
2017-12-29T04:29:34.958Z,97140.77
2017-12-29T04:30:38.942Z,97147.31
2017-12-29T04:31:41.883Z,97136.73
2017-12-29T04:32:44.822Z,97138.66
2017-12-29T04:33:47.760Z,97137.11
2017-12-29T04:34:50.609Z,97131.53
2017-12-29T04:35:53.471Z,97135.95
2017-12-29T04:36:56.611Z,97147.11
2017-12-29T04:37:59.509Z,97140.00
2017-12-29T04:39:02.377Z,97149.03
2017-12-29T04:40:05.161Z,97147.11
2017-12-29T04:41:07.915Z,97145.58
2017-12-29T04:42:10.675Z,97143.84
2017-12-29T04:43:13.760Z,97151.73
2017-12-29T04:44:16.524Z,97161.16
2017-12-29T04:45:19.309Z,97158.83
2017-12-29T04:46:22.068Z,97166.34
2017-12-29T04:47:24.892Z,97156.16
2017-12-29T04:48:27.729Z,97165.38
2017-12-29T04:49:30.888Z,97169.41
2017-12-29T04:50:33.813Z,97164.63
2017-12-29T04:51:36.746Z,97146.91
2017-12-29T04:52:39.658Z,97159.61
2017-12-29T04:53:42.634Z,97166.53
2017-12-29T04:54:45.581Z,97170.96
2017-12-29T04:55:48.950Z,97169.03
2017-12-29T04:56:51.898Z,97166.31
2017-12-29T04:57:54.886Z,97176.50
2017-12-29T04:58:57.893Z,97168.05
2017-12-29T05:00:00.887Z,97175.17
2017-12-29T05:01:03.865Z,97166.88
2017-12-29T05:02:07.190Z,97159.19
2017-12-29T05:03:10.122Z,97164.97
2017-12-29T05:04:13.109Z,97169.98
2017-12-29T05:05:16.047Z,97179.02
2017-12-29T05:06:19.056Z,97171.34
2017-12-29T05:07:22.014Z,97173.45
2017-12-29T05:08:25.301Z,97172.09
2017-12-29T05:09:28.265Z,97175.16
2017-12-29T05:10:31.200Z,97171.73
2017-12-29T05:11:34.101Z,97173.25
2017-12-29T05:12:38.616Z,97181.13
2017-12-29T05:13:41.674Z,97180.55
2017-12-29T05:14:45.098Z,97182.48
2017-12-29T05:15:48.107Z,97184.37
2017-12-29T05:16:51.104Z,97185.94
2017-12-29T05:17:54.192Z,97188.81
2017-12-29T05:18:57.269Z,97171.69
2017-12-29T05:20:00.328Z,97184.77
2017-12-29T05:21:03.696Z,97194.80
2017-12-29T05:22:06.618Z,97185.33
2017-12-29T05:23:09.692Z,97195.94
2017-12-29T05:24:12.804Z,97193.22
2017-12-29T05:25:15.966Z,97182.27
2017-12-29T05:26:19.044Z,97200.17
2017-12-29T05:27:22.486Z,97192.64
2017-12-29T05:28:25.567Z,97190.70
2017-12-29T05:29:28.646Z,97199.36
2017-12-29T05:30:31.724Z,97192.86
2017-12-29T05:31:34.788Z,97197.86
2017-12-29T05:32:37.894Z,97199.56
2017-12-29T05:33:41.293Z,97195.73
2017-12-29T05:34:45.009Z,97199.98
2017-12-29T05:35:48.062Z,97200.75
2017-12-29T05:36:51.176Z,97199.60
2017-12-29T05:37:54.304Z,97199.20
2017-12-29T05:38:57.353Z,97199.97
2017-12-29T05:40:00.827Z,97204.20
2017-12-29T05:41:03.938Z,97200.73
2017-12-29T05:42:06.936Z,97200.55
2017-12-29T05:43:10.019Z,97215.92
2017-12-29T05:44:13.054Z,97208.80
2017-12-29T05:45:16.115Z,97215.55
2017-12-29T05:46:19.454Z,97211.47
2017-12-29T05:47:22.506Z,97224.55
2017-12-29T05:48:25.581Z,97219.13
2017-12-29T05:49:28.552Z,97226.26
2017-12-29T05:50:31.544Z,97224.52
2017-12-29T05:51:34.542Z,97216.27
2017-12-29T05:52:37.885Z,97225.33
2017-12-29T05:53:41.026Z,97218.78
2017-12-29T05:54:44.124Z,97216.09
2017-12-29T05:55:47.196Z,97220.11
2017-12-29T05:56:50.316Z,97222.99
2017-12-29T05:57:53.369Z,97212.79
2017-12-29T05:58:56.683Z,97224.72
2017-12-29T05:59:59.741Z,97220.13
2017-12-29T06:01:02.798Z,97221.84
2017-12-29T06:02:05.957Z,97221.03
2017-12-29T06:03:09.114Z,97225.30
2017-12-29T06:04:12.168Z,97225.68
2017-12-29T06:05:15.496Z,97230.12
2017-12-29T06:06:18.556Z,97226.64
2017-12-29T06:07:22.273Z,97220.88
2017-12-29T06:08:25.286Z,97214.69
2017-12-29T06:09:28.384Z,97217.80
2017-12-29T06:10:31.398Z,97214.70
2017-12-29T06:11:34.991Z,97219.34
2017-12-29T06:12:38.028Z,97214.52
2017-12-29T06:13:41.179Z,97225.06
2017-12-29T06:14:44.265Z,97222.36
2017-12-29T06:15:47.333Z,97226.06
2017-12-29T06:16:50.378Z,97221.61
2017-12-29T06:17:53.726Z,97227.19
2017-12-29T06:18:57.710Z,97229.11
2017-12-29T06:20:00.824Z,97226.03
2017-12-29T06:21:03.907Z,97224.86
2017-12-29T06:22:07.003Z,97224.49
2017-12-29T06:23:10.067Z,97217.55
2017-12-29T06:24:13.570Z,97220.81
2017-12-29T06:25:16.608Z,97222.14
2017-12-29T06:26:19.722Z,97220.63
2017-12-29T06:27:22.876Z,97222.92
2017-12-29T06:28:25.909Z,97225.80
2017-12-29T06:29:29.010Z,97230.95
2017-12-29T06:30:32.326Z,97233.33
2017-12-29T06:31:35.369Z,97221.77
2017-12-29T06:32:38.493Z,97223.69
2017-12-29T06:33:41.565Z,97221.95
2017-12-29T06:34:44.610Z,97224.98
2017-12-29T06:35:47.596Z,97217.50
2017-12-29T06:36:50.893Z,97223.05
2017-12-29T06:37:53.953Z,97222.88
2017-12-29T06:38:57.023Z,97224.61
2017-12-29T06:40:00.078Z,97217.52
2017-12-29T06:41:03.179Z,97213.48
2017-12-29T06:42:06.250Z,97213.13
2017-12-29T06:43:09.808Z,97222.55
2017-12-29T06:44:12.937Z,97219.20
2017-12-29T06:45:16.035Z,97222.68
2017-12-29T06:46:19.127Z,97229.78
2017-12-29T06:47:22.536Z,97218.80
2017-12-29T06:48:25.646Z,97226.52
2017-12-29T06:49:29.204Z,97216.15
2017-12-29T06:50:32.338Z,97212.32
2017-12-29T06:51:35.395Z,97211.13
2017-12-29T06:52:38.457Z,97220.94
2017-12-29T06:53:42.197Z,97213.98
2017-12-29T06:54:45.225Z,97211.87
2017-12-29T06:55:48.650Z,97212.31
2017-12-29T06:56:51.718Z,97215.20
2017-12-29T06:57:54.775Z,97203.09
2017-12-29T06:58:57.875Z,97207.83
2017-12-29T07:00:01.019Z,97206.87
2017-12-29T07:01:04.124Z,97214.97
2017-12-29T07:02:07.618Z,97217.28
2017-12-29T07:03:10.668Z,97206.45
2017-12-29T07:04:13.817Z,97210.34
2017-12-29T07:05:17.876Z,97218.98
2017-12-29T07:06:20.966Z,97210.33
2017-12-29T07:07:24.084Z,97209.17
2017-12-29T07:08:27.462Z,97210.22
2017-12-29T07:09:30.527Z,97215.57
2017-12-29T07:10:33.626Z,97218.64
2017-12-29T07:11:36.705Z,97213.95
2017-12-29T07:12:39.803Z,97216.43
2017-12-29T07:13:42.900Z,97223.97
2017-12-29T07:14:46.240Z,97213.98
2017-12-29T07:15:49.869Z,97218.72
2017-12-29T07:16:52.973Z,97223.58
2017-12-29T07:17:56.024Z,97225.14
2017-12-29T07:18:59.101Z,97231.12
2017-12-29T07:20:02.239Z,97235.34
2017-12-29T07:21:05.664Z,97234.37
2017-12-29T07:22:08.774Z,97237.78
2017-12-29T07:23:11.831Z,97234.33
2017-12-29T07:24:14.914Z,97227.73
2017-12-29T07:25:17.988Z,97236.24
2017-12-29T07:26:21.018Z,97231.58
2017-12-29T07:27:24.290Z,97227.98
2017-12-29T07:28:27.296Z,97222.72
2017-12-29T07:29:30.270Z,97219.86
2017-12-29T07:30:33.226Z,97213.90
2017-12-29T07:31:36.267Z,97215.84
2017-12-29T07:32:39.332Z,97216.41
2017-12-29T07:33:42.694Z,97214.30
2017-12-29T07:34:46.007Z,97212.19
2017-12-29T07:35:49.107Z,97203.16
2017-12-29T07:36:52.151Z,97201.86
2017-12-29T07:37:55.209Z,97224.55
2017-12-29T07:38:58.310Z,97210.91
2017-12-29T07:40:01.950Z,97211.47
2017-12-29T07:41:04.928Z,97210.27
2017-12-29T07:42:07.978Z,97221.84
2017-12-29T07:43:10.887Z,97217.31
2017-12-29T07:44:13.816Z,97217.48
2017-12-29T07:45:16.775Z,97209.19
2017-12-29T07:46:20.129Z,97210.00
2017-12-29T07:47:23.116Z,97211.69
2017-12-29T07:48:26.097Z,97207.48
2017-12-29T07:49:29.073Z,97205.02
2017-12-29T07:50:32.138Z,97204.39
2017-12-29T07:51:35.186Z,97205.83
2017-12-29T07:52:38.542Z,97214.11
2017-12-29T07:53:41.494Z,97207.41
2017-12-29T07:54:44.514Z,97208.20
2017-12-29T07:55:47.467Z,97206.26
2017-12-29T07:56:50.556Z,97198.26
2017-12-29T07:57:53.663Z,97196.71
2017-12-29T07:58:57.734Z,97197.48
2017-12-29T08:00:00.867Z,97193.08
2017-12-29T08:01:03.944Z,97200.95
2017-12-29T08:02:07.027Z,97197.28
2017-12-29T08:03:10.175Z,97200.49
2017-12-29T08:04:13.254Z,97194.14
2017-12-29T08:05:16.818Z,97189.77
2017-12-29T08:06:19.962Z,97196.45
2017-12-29T08:07:24.026Z,97190.48
2017-12-29T08:08:27.107Z,97189.70
2017-12-29T08:09:30.190Z,97191.55
2017-12-29T08:10:33.251Z,97192.08
2017-12-29T08:11:36.611Z,97195.84
2017-12-29T08:12:39.672Z,97198.77
2017-12-29T08:13:42.761Z,97195.20
2017-12-29T08:14:45.840Z,97192.37
2017-12-29T08:15:48.942Z,97200.98
2017-12-29T08:16:52.062Z,97194.19
2017-12-29T08:17:55.708Z,97193.42
2017-12-29T08:18:58.842Z,97201.01
2017-12-29T08:20:01.957Z,97194.27
2017-12-29T08:21:05.092Z,97193.81
2017-12-29T08:22:08.177Z,97194.16
2017-12-29T08:23:12.053Z,97199.69
2017-12-29T08:24:15.677Z,97191.31
2017-12-29T08:25:18.768Z,97182.48
2017-12-29T08:26:21.990Z,97188.62
2017-12-29T08:27:25.136Z,97185.91
2017-12-29T08:28:28.194Z,97185.52
2017-12-29T08:29:31.265Z,97191.61
2017-12-29T08:30:34.653Z,97194.71
2017-12-29T08:31:37.719Z,97190.27
2017-12-29T08:32:40.794Z,97193.36
2017-12-29T08:33:43.857Z,97196.59
2017-12-29T08:34:46.955Z,97197.27
2017-12-29T08:35:50.065Z,97191.40
2017-12-29T08:36:53.470Z,97197.08
2017-12-29T08:37:56.884Z,97198.86
2017-12-29T08:38:59.952Z,97191.95
2017-12-29T08:40:03.037Z,97196.80
2017-12-29T08:41:06.115Z,97202.77
2017-12-29T08:42:09.470Z,97199.72
2017-12-29T08:43:12.902Z,97199.34
2017-12-29T08:44:16.215Z,97205.89
2017-12-29T08:45:19.344Z,97224.34
2017-12-29T08:46:22.467Z,97203.73
2017-12-29T08:47:25.577Z,97209.78
2017-12-29T08:48:28.706Z,97205.23
2017-12-29T08:49:32.164Z,97201.19
2017-12-29T08:50:35.255Z,97205.88
2017-12-29T08:51:38.318Z,97207.38
2017-12-29T08:52:42.037Z,97203.34
2017-12-29T08:53:45.166Z,97204.60
2017-12-29T08:54:48.390Z,97207.55
2017-12-29T08:55:51.810Z,97205.41
2017-12-29T08:56:54.852Z,97213.20
2017-12-29T08:57:57.883Z,97205.98
2017-12-29T08:59:00.975Z,97216.31
2017-12-29T09:00:04.086Z,97204.47
2017-12-29T09:01:07.192Z,97212.26
2017-12-29T09:02:10.657Z,97203.92
2017-12-29T09:03:13.725Z,97193.05
2017-12-29T09:04:16.915Z,97195.94
2017-12-29T09:05:20.045Z,97202.77
2017-12-29T09:06:23.160Z,97188.83
2017-12-29T09:07:26.230Z,97197.57
2017-12-29T09:08:29.685Z,97202.05
2017-12-29T09:09:32.790Z,97205.70
2017-12-29T09:10:35.883Z,97209.94
2017-12-29T09:11:39.015Z,97213.10
2017-12-29T09:12:42.080Z,97205.28
2017-12-29T09:13:45.110Z,97198.47
2017-12-29T09:14:48.514Z,97192.89
2017-12-29T09:15:52.551Z,97187.51
2017-12-29T09:16:55.646Z,97191.67
2017-12-29T09:17:58.838Z,97191.92
2017-12-29T09:19:01.900Z,97184.39
2017-12-29T09:20:04.959Z,97196.26
2017-12-29T09:21:08.461Z,97189.89
2017-12-29T09:22:11.572Z,97187.36
2017-12-29T09:23:14.645Z,97178.83
2017-12-29T09:24:17.745Z,97192.41
2017-12-29T09:25:20.777Z,97194.02
2017-12-29T09:26:23.829Z,97181.00
2017-12-29T09:27:27.243Z,97185.22
2017-12-29T09:28:30.307Z,97184.72
2017-12-29T09:29:33.419Z,97178.24
2017-12-29T09:30:36.428Z,97187.87
2017-12-29T09:31:39.489Z,97201.33
2017-12-29T09:32:42.525Z,97183.40
2017-12-29T09:33:45.889Z,97166.92
2017-12-29T09:34:48.959Z,97188.76
2017-12-29T09:35:52.035Z,97187.95
2017-12-29T09:36:55.113Z,97179.98
2017-12-29T09:37:58.202Z,97192.59
2017-12-29T09:39:01.340Z,97176.64
2017-12-29T09:40:04.963Z,97174.75
2017-12-29T09:41:07.972Z,97168.03
2017-12-29T09:42:11.035Z,97185.85
2017-12-29T09:43:14.026Z,97184.45
2017-12-29T09:44:17.076Z,97179.19
2017-12-29T09:45:20.099Z,97159.48
2017-12-29T09:46:23.456Z,97168.20
2017-12-29T09:47:26.545Z,97162.98
2017-12-29T09:48:29.658Z,97169.16
2017-12-29T09:49:32.768Z,97196.26
2017-12-29T09:50:36.479Z,97163.41
2017-12-29T09:51:39.684Z,97157.56
2017-12-29T09:52:43.084Z,97159.62
2017-12-29T09:53:46.343Z,97158.12
2017-12-29T09:54:49.477Z,97155.77
2017-12-29T09:55:52.616Z,97152.42
2017-12-29T09:56:55.745Z,97150.97
2017-12-29T09:57:58.994Z,97138.50
2017-12-29T09:59:02.565Z,97139.05
2017-12-29T10:00:05.852Z,97137.83
2017-12-29T10:01:08.839Z,97119.09
2017-12-29T10:02:11.826Z,97138.38
2017-12-29T10:03:14.805Z,97147.65
2017-12-29T10:04:17.887Z,97116.23
2017-12-29T10:05:21.308Z,97114.60
2017-12-29T10:06:24.370Z,97126.63
2017-12-29T10:07:27.421Z,97112.93
2017-12-29T10:08:30.498Z,97136.61
2017-12-29T10:09:33.599Z,97122.44
2017-12-29T10:10:36.691Z,97125.81
2017-12-29T10:11:40.053Z,97099.77
2017-12-29T10:12:43.141Z,97106.09
2017-12-29T10:13:46.288Z,97099.74
2017-12-29T10:14:49.419Z,97103.97
2017-12-29T10:15:52.501Z,97109.75
2017-12-29T10:16:55.851Z,97110.48
2017-12-29T10:17:58.931Z,97143.41
2017-12-29T10:19:01.933Z,97123.24
2017-12-29T10:20:05.013Z,97120.30
2017-12-29T10:21:08.272Z,97106.11
2017-12-29T10:22:11.448Z,97111.72
2017-12-29T10:23:15.063Z,97110.17
2017-12-29T10:24:18.218Z,97125.33
2017-12-29T10:25:21.307Z,97091.77
2017-12-29T10:26:24.373Z,97110.80
2017-12-29T10:27:27.522Z,97098.77
2017-12-29T10:28:30.615Z,97101.55
2017-12-29T10:29:34.039Z,97104.17
2017-12-29T10:30:37.280Z,97094.75
2017-12-29T10:31:40.371Z,97095.67
2017-12-29T10:32:43.462Z,97097.94
2017-12-29T10:33:46.570Z,97106.20
2017-12-29T10:34:49.662Z,97087.73
2017-12-29T10:35:53.027Z,97085.30
2017-12-29T10:36:56.156Z,97094.05
2017-12-29T10:37:59.238Z,97091.73
2017-12-29T10:39:02.388Z,97093.55
2017-12-29T10:40:05.475Z,97090.37
2017-12-29T10:41:08.596Z,97095.34
2017-12-29T10:42:12.213Z,97097.77
2017-12-29T10:43:15.306Z,97072.25
2017-12-29T10:44:18.461Z,97086.03
2017-12-29T10:45:22.554Z,97099.75
2017-12-29T10:46:25.651Z,97104.19
2017-12-29T10:47:28.743Z,97080.24
2017-12-29T10:48:32.597Z,97093.52
2017-12-29T10:49:35.727Z,97100.95
2017-12-29T10:50:38.839Z,97086.50
2017-12-29T10:51:41.917Z,97096.62
2017-12-29T10:52:44.929Z,97092.35
2017-12-29T10:53:48.003Z,97095.94
2017-12-29T10:54:51.383Z,97076.19
2017-12-29T10:55:54.475Z,97080.46
2017-12-29T10:56:57.582Z,97082.23
2017-12-29T10:58:00.708Z,97074.78
2017-12-29T10:59:04.392Z,97075.49
2017-12-29T11:00:07.495Z,97076.05
2017-12-29T11:01:10.874Z,97086.96
2017-12-29T11:02:14.046Z,97082.19
2017-12-29T11:03:18.149Z,97082.45
2017-12-29T11:04:21.214Z,97076.41
2017-12-29T11:05:24.277Z,97070.96
2017-12-29T11:06:27.377Z,97072.38
2017-12-29T11:07:30.511Z,97087.98
2017-12-29T11:08:33.724Z,97081.52
2017-12-29T11:09:36.809Z,97084.16
2017-12-29T11:10:40.652Z,97047.52
2017-12-29T11:11:43.720Z,97071.05
2017-12-29T11:12:47.104Z,97060.81
2017-12-29T11:13:50.260Z,97077.94
2017-12-29T11:14:53.335Z,97098.95
2017-12-29T11:15:56.413Z,97101.88
2017-12-29T11:16:59.532Z,97091.41
2017-12-29T11:18:02.710Z,97086.81
2017-12-29T11:19:06.174Z,97075.30
2017-12-29T11:20:09.262Z,97094.12
2017-12-29T11:21:12.489Z,97069.84
2017-12-29T11:22:15.622Z,97082.09
2017-12-29T11:23:18.828Z,97079.47
2017-12-29T11:24:21.952Z,97085.17
2017-12-29T11:25:25.108Z,97082.02
2017-12-29T11:26:29.372Z,97088.61
2017-12-29T11:27:33.140Z,97078.50
2017-12-29T11:28:36.229Z,97092.69
2017-12-29T11:29:39.405Z,97080.75
2017-12-29T11:30:42.869Z,97055.86
2017-12-29T11:31:45.991Z,97069.33
2017-12-29T11:32:49.103Z,97059.05
2017-12-29T11:33:52.342Z,97052.88
2017-12-29T11:34:55.473Z,97061.69
2017-12-29T11:35:58.556Z,97063.70
2017-12-29T11:37:02.188Z,97052.84
2017-12-29T11:38:05.258Z,97065.90
2017-12-29T11:39:08.361Z,97043.91
2017-12-29T11:40:11.450Z,97041.34
2017-12-29T11:41:14.586Z,97033.50
2017-12-29T11:42:17.640Z,97035.75
2017-12-29T11:43:21.004Z,97039.89
2017-12-29T11:44:24.088Z,97041.67
2017-12-29T11:45:27.214Z,97024.23
2017-12-29T11:46:30.352Z,97025.47
2017-12-29T11:47:34.370Z,97020.45
2017-12-29T11:48:37.549Z,97025.53
2017-12-29T11:49:41.108Z,97003.54
2017-12-29T11:50:44.218Z,97003.83
2017-12-29T11:51:47.430Z,97012.98
2017-12-29T11:52:50.587Z,97003.25
2017-12-29T11:53:53.695Z,97020.52
2017-12-29T11:54:56.823Z,97019.56
2017-12-29T11:56:00.264Z,97034.61
2017-12-29T11:57:04.562Z,97009.95
2017-12-29T11:58:07.672Z,96999.33
2017-12-29T11:59:11.364Z,96997.50
2017-12-29T12:00:14.587Z,96997.98
2017-12-29T12:01:17.681Z,96989.20
2017-12-29T12:02:21.184Z,96979.32
2017-12-29T12:03:24.777Z,96977.01
2017-12-29T12:04:27.909Z,96976.50
2017-12-29T12:05:31.526Z,96975.43
2017-12-29T12:06:34.618Z,96957.82
2017-12-29T12:07:37.682Z,96967.40
2017-12-29T12:08:41.396Z,96966.83
2017-12-29T12:09:44.472Z,96963.08
2017-12-29T12:10:47.689Z,96963.48
2017-12-29T12:11:50.784Z,96915.46
2017-12-29T12:12:53.901Z,96955.31
2017-12-29T12:13:57.011Z,96953.25
2017-12-29T12:15:00.604Z,96952.30
2017-12-29T12:16:03.729Z,96965.22
2017-12-29T12:17:06.892Z,96949.84
2017-12-29T12:18:10.000Z,96947.17
2017-12-29T12:19:13.373Z,96939.50
2017-12-29T12:20:16.422Z,96953.16
2017-12-29T12:21:19.737Z,96948.02